Time;durP1;ratioP1;P1;durP2;ratioP2;P2;SDS_P1;SDS_P2;PMS_P1;PMS_P2;Temp;Humidity;BMP_temperature;BMP_pressure;BME280_temperature;BME280_humidity;BME280_pressure;Samples;Min_cycle;Max_cycle;Signal;HPM_P1;HPM_P2
2021/06/21 00:01:19;;;;;;;10.88;8.75;;;21.00;99.90;;;;;;5093719;28;20469;-70
2021/06/21 00:03:45;;;;;;;11.10;8.65;;;21.00;99.90;;;;;;5093722;28;20028;-70
2021/06/21 00:06:10;;;;;;;12.70;8.40;;;21.00;99.90;;;;;;5093424;28;20058;-70
2021/06/21 00:08:36;;;;;;;11.02;8.98;;;21.00;99.90;;;;;;5093126;28;20025;-70
2021/06/21 00:11:02;;;;;;;10.70;8.82;;;21.00;99.90;;;;;;5093634;28;20031;-69
2021/06/21 00:13:28;;;;;;;8.82;7.82;;;21.00;99.90;;;;;;5091836;28;20465;-70
2021/06/21 00:15:53;;;;;;;8.95;7.35;;;21.00;99.90;;;;;;5092985;28;20052;-69
2021/06/21 00:18:19;;;;;;;10.10;7.97;;;21.00;99.90;;;;;;5091795;28;20401;-70
2021/06/21 00:20:46;;;;;;;9.07;7.90;;;20.90;99.90;;;;;;5092128;28;20056;-70
2021/06/21 00:23:12;;;;;;;11.32;8.27;;;20.90;99.90;;;;;;5095325;28;20040;-69
2021/06/21 00:25:38;;;;;;;10.43;7.57;;;20.90;99.90;;;;;;5096214;28;20108;-69
2021/06/21 00:28:04;;;;;;;13.13;7.65;;;20.90;99.90;;;;;;5095727;28;20035;-69
2021/06/21 00:30:30;;;;;;;9.05;6.78;;;20.80;99.90;;;;;;5078337;28;20024;-69
2021/06/21 00:32:55;;;;;;;9.18;7.88;;;20.80;99.90;;;;;;5079242;28;20035;-70
2021/06/21 00:35:21;;;;;;;10.95;7.68;;;20.80;99.90;;;;;;5096991;28;20106;-70
2021/06/21 00:37:47;;;;;;;9.10;7.22;;;20.80;99.90;;;;;;5078286;28;20469;-70
2021/06/21 00:40:15;;;;;;;7.70;6.57;;;20.80;99.90;;;;;;5096964;28;20487;-69
2021/06/21 00:42:43;;;;;;;12.40;7.60;;;20.70;99.90;;;;;;5095074;28;20044;-70
2021/06/21 00:45:10;;;;;;;12.63;6.95;;;20.70;99.90;;;;;;5095381;28;20035;-70
2021/06/21 00:47:36;;;;;;;8.88;7.32;;;20.60;99.90;;;;;;5095341;28;20487;-69
2021/06/21 00:50:03;;;;;;;9.43;7.15;;;20.60;99.90;;;;;;5096731;28;20031;-69
2021/06/21 00:52:28;;;;;;;10.90;8.05;;;20.50;99.90;;;;;;5096382;28;20020;-69
2021/06/21 00:55:01;;;;;;;8.40;7.32;;;20.50;99.90;;;;;;5094740;28;20031;-69
2021/06/21 00:57:30;;;;;;;11.57;7.47;;;20.40;99.90;;;;;;5094949;28;20477;-70
2021/06/21 00:59:59;;;;;;;9.30;7.80;;;20.40;99.90;;;;;;5096531;28;20032;-70
2021/06/21 01:02:27;;;;;;;10.02;7.55;;;20.40;99.90;;;;;;5096204;28;20373;-70
2021/06/21 01:04:53;;;;;;;9.02;7.90;;;20.40;99.90;;;;;;5095922;28;20039;-69
2021/06/21 01:07:19;;;;;;;14.70;8.50;;;20.30;99.90;;;;;;5095250;28;20016;-69
2021/06/21 01:09:44;;;;;;;12.45;9.38;;;20.20;99.90;;;;;;5096360;28;20024;-69
2021/06/21 01:12:19;;;;;;;12.35;9.48;;;20.00;99.90;;;;;;5094481;28;20026;-69
2021/06/21 01:14:49;;;;;;;18.48;11.88;;;19.90;99.90;;;;;;5095721;28;20076;-69
2021/06/21 01:17:22;;;;;;;17.55;12.70;;;19.80;99.90;;;;;;5078132;28;20024;-70
2021/06/21 01:20:27;;;;;;;16.85;12.05;;;19.70;99.90;;;;;;5096185;28;20103;-70
2021/06/21 01:23:26;;;;;;;19.05;13.05;;;19.50;99.90;;;;;;5095607;28;20024;-69
2021/06/21 01:26:04;;;;;;;17.15;13.63;;;19.40;99.90;;;;;;5094278;28;20381;-69
2021/06/21 01:28:57;;;;;;;20.05;14.90;;;19.30;99.90;;;;;;5095693;28;20032;-70
2021/06/21 01:31:28;;;;;;;21.80;14.98;;;19.40;99.90;;;;;;5095330;28;20044;-70
2021/06/21 01:33:55;;;;;;;21.05;14.50;;;19.40;99.90;;;;;;5094408;28;20117;-70
2021/06/21 01:36:24;;;;;;;18.10;15.27;;;19.40;99.90;;;;;;5095778;28;20024;-69
2021/06/21 01:38:54;;;;;;;19.20;14.90;;;19.30;99.90;;;;;;5095754;28;20085;-69
2021/06/21 01:41:24;;;;;;;27.00;17.50;;;19.20;99.90;;;;;;5095684;28;20512;-69
2021/06/21 01:43:51;;;;;;;26.05;18.38;;;19.20;99.90;;;;;;5095387;28;20051;-69
2021/06/21 01:46:20;;;;;;;23.33;19.13;;;19.10;99.90;;;;;;5095340;28;20028;-69
2021/06/21 01:48:50;;;;;;;30.05;22.95;;;19.10;99.90;;;;;;5095319;28;20028;-69
2021/06/21 01:51:18;;;;;;;33.38;22.08;;;19.10;99.90;;;;;;5095232;28;20377;-69
2021/06/21 01:53:47;;;;;;;30.23;22.20;;;19.00;99.90;;;;;;5095493;28;20052;-68
2021/06/21 01:56:20;;;;;;;30.10;22.55;;;18.90;99.90;;;;;;5094212;28;20028;-68
2021/06/21 01:58:47;;;;;;;;;;;18.90;99.90;;;;;;5094882;28;20441;-68
2021/06/21 02:01:17;;;;;;;35.33;24.83;;;18.80;99.90;;;;;;5093569;28;19910;-68
2021/06/21 02:03:49;;;;;;;35.85;24.88;;;18.80;99.90;;;;;;5095292;28;20020;-68
2021/06/21 02:06:16;;;;;;;44.65;28.00;;;18.80;99.90;;;;;;5095245;28;20077;-68
2021/06/21 02:08:44;;;;;;;35.42;27.35;;;18.80;99.90;;;;;;5094907;28;20028;-68
2021/06/21 02:11:11;;;;;;;34.63;27.25;;;18.70;99.90;;;;;;5094831;28;20024;-68
2021/06/21 02:13:37;;;;;;;41.13;29.42;;;18.70;99.90;;;;;;5093232;28;20031;-68
2021/06/21 02:16:05;;;;;;;39.22;29.85;;;18.70;99.90;;;;;;5094407;28;20485;-68
2021/06/21 02:18:32;;;;;;;45.03;31.98;;;18.70;99.90;;;;;;5094739;28;20020;-68
2021/06/21 02:20:58;;;;;;;41.70;31.40;;;18.70;99.90;;;;;;5094695;28;20031;-68
2021/06/21 02:23:25;;;;;;;39.00;29.30;;;18.60;99.90;;;;;;5093587;28;20020;-68
2021/06/21 02:25:52;;;;;;;48.97;32.58;;;18.60;99.90;;;;;;5094906;28;20020;-68
2021/06/21 02:28:19;;;;;;;45.35;31.20;;;18.60;99.90;;;;;;5094621;28;20047;-68
2021/06/21 02:30:47;;;;;;;42.40;31.23;;;18.60;99.90;;;;;;5094536;28;20024;-68
2021/06/21 02:33:14;;;;;;;39.83;31.17;;;18.60;99.90;;;;;;5094745;28;20020;-68
2021/06/21 02:35:40;;;;;;;41.45;32.00;;;18.60;99.90;;;;;;5094642;28;20024;-68
2021/06/21 02:38:06;;;;;;;45.25;30.30;;;18.60;99.90;;;;;;5093200;28;20487;-68
2021/06/21 02:40:32;;;;;;;41.85;32.22;;;18.60;99.90;;;;;;5093149;28;20020;-68
2021/06/21 02:42:57;;;;;;;44.15;31.33;;;18.60;99.90;;;;;;5094020;28;20044;-68
2021/06/21 02:45:23;;;;;;;39.15;32.88;;;18.60;99.90;;;;;;5094135;28;20032;-68
2021/06/21 02:47:49;;;;;;;45.30;34.42;;;18.60;99.90;;;;;;5094250;28;20028;-68
2021/06/21 02:50:15;;;;;;;44.92;35.33;;;18.60;99.90;;;;;;5093945;28;20027;-68
2021/06/21 02:52:52;;;;;;;43.15;34.78;;;18.60;99.90;;;;;;5094448;28;20024;-68
2021/06/21 02:55:22;;;;;;;43.90;34.78;;;18.60;99.90;;;;;;5094288;28;20028;-68
2021/06/21 02:58:02;;;;;;;45.35;36.03;;;18.60;99.90;;;;;;5094337;28;20020;-68
2021/06/21 03:00:29;;;;;;;41.90;32.63;;;18.60;99.90;;;;;;5094348;28;20020;-68
2021/06/21 03:02:56;;;;;;;42.70;34.33;;;18.60;99.90;;;;;;5092791;28;20477;-68
2021/06/21 03:05:24;;;;;;;46.47;35.13;;;18.60;99.90;;;;;;5093015;28;20024;-68
2021/06/21 03:07:52;;;;;;;45.20;36.65;;;18.60;99.90;;;;;;5094206;28;20111;-68
2021/06/21 03:10:18;;;;;;;46.83;37.25;;;18.60;99.90;;;;;;5093899;28;20110;-68
2021/06/21 03:12:46;;;;;;;46.00;35.90;;;18.60;99.90;;;;;;5092474;28;20024;-68
2021/06/21 03:15:18;;;;;;;38.85;33.05;;;18.60;99.90;;;;;;5092682;28;20080;-68
2021/06/21 03:17:44;;;;;;;41.92;34.45;;;18.60;99.90;;;;;;5094118;28;20066;-68
2021/06/21 03:20:11;;;;;;;42.83;35.40;;;18.60;99.90;;;;;;5092663;28;20028;-68
2021/06/21 03:22:39;;;;;;;44.50;34.78;;;18.60;99.90;;;;;;5093854;28;20074;-68
2021/06/21 03:25:06;;;;;;;42.05;34.67;;;18.60;99.90;;;;;;5093838;28;20024;-68
2021/06/21 03:27:34;;;;;;;46.20;36.28;;;18.60;99.90;;;;;;5093781;28;20024;-68
2021/06/21 03:30:04;;;;;;;45.03;37.35;;;18.60;99.90;;;;;;5092196;28;20035;-68
2021/06/21 03:32:33;;;;;;;45.72;37.22;;;18.70;99.90;;;;;;5092544;28;20024;-68
2021/06/21 03:35:02;;;;;;;45.92;38.05;;;18.70;99.90;;;;;;5093873;28;20020;-68
2021/06/21 03:37:29;;;;;;;44.30;37.00;;;18.70;99.90;;;;;;5093957;28;20028;-68
2021/06/21 03:39:54;;;;;;;43.75;35.78;;;18.70;99.90;;;;;;5093943;28;20043;-68
2021/06/21 03:42:20;;;;;;;44.88;36.40;;;18.70;99.90;;;;;;5092528;28;20023;-68
2021/06/21 03:44:47;;;;;;;46.53;37.90;;;18.70;99.90;;;;;;5093891;28;20032;-68
2021/06/21 03:47:13;;;;;;;43.58;36.50;;;18.80;99.90;;;;;;5093587;28;20035;-68
2021/06/21 03:49:42;;;;;;;44.63;35.97;;;18.70;99.90;;;;;;5092680;28;20016;-68
2021/06/21 03:52:08;;;;;;;44.53;37.28;;;18.80;99.90;;;;;;5092111;28;20530;-68
2021/06/21 03:54:33;;;;;;;47.53;38.05;;;18.70;99.90;;;;;;5092382;28;20024;-68
2021/06/21 03:56:59;;;;;;;52.80;39.47;;;18.70;99.90;;;;;;5093140;28;20039;-68
2021/06/21 03:59:24;;;;;;;53.60;41.38;;;18.70;99.90;;;;;;5097690;28;20025;-68
2021/06/21 04:01:51;;;;;;;49.58;40.30;;;18.70;99.90;;;;;;5097624;28;20020;-68
2021/06/21 04:04:16;;;;;;;49.00;40.42;;;18.70;99.90;;;;;;5097317;28;20091;-68
2021/06/21 04:06:42;;;;;;;40.85;34.78;;;18.80;99.90;;;;;;5097303;28;20057;-68
2021/06/21 04:09:08;;;;;;;39.85;33.25;;;18.80;99.90;;;;;;5097510;28;20526;-68
2021/06/21 04:11:33;;;;;;;38.88;33.58;;;18.80;99.90;;;;;;5095649;28;20031;-68
2021/06/21 04:13:59;;;;;;;41.20;35.67;;;18.90;99.90;;;;;;5095585;28;20035;-68
2021/06/21 04:16:25;;;;;;;43.75;36.50;;;18.90;99.90;;;;;;5096697;28;20144;-68
2021/06/21 04:18:51;;;;;;;46.45;37.22;;;18.80;99.90;;;;;;5097311;28;20028;-68
2021/06/21 04:21:16;;;;;;;42.40;36.42;;;18.80;99.90;;;;;;5096736;28;20024;-68
2021/06/21 04:23:42;;;;;;;47.17;36.67;;;18.80;99.90;;;;;;5095689;28;20020;-68
2021/06/21 04:26:07;;;;;;;40.30;33.35;;;18.90;99.90;;;;;;5095400;28;20111;-68
2021/06/21 04:28:33;;;;;;;41.50;32.97;;;19.00;99.90;;;;;;5095372;28;20024;-68
2021/06/21 04:30:59;;;;;;;37.63;29.23;;;19.00;99.90;;;;;;5096803;28;20024;-68
2021/06/21 04:33:25;;;;;;;34.53;29.85;;;19.00;99.90;;;;;;5095631;28;20036;-69
2021/06/21 04:35:50;;;;;;;35.03;31.27;;;18.90;99.90;;;;;;5096947;28;20063;-68
2021/06/21 04:38:22;;;;;;;42.75;33.75;;;18.90;99.90;;;;;;5095664;28;20058;-69
2021/06/21 04:40:48;;;;;;;36.15;29.95;;;18.80;99.90;;;;;;5095527;28;20012;-69
2021/06/21 04:43:13;;;;;;;37.08;32.53;;;18.80;99.90;;;;;;5095438;28;20016;-69
2021/06/21 04:45:39;;;;;;;39.38;32.42;;;18.90;99.90;;;;;;5096779;28;20024;-69
2021/06/21 04:48:05;;;;;;;40.28;34.25;;;18.80;99.90;;;;;;5095050;28;20031;-69
2021/06/21 04:50:31;;;;;;;37.72;33.03;;;18.90;99.90;;;;;;5078163;28;20522;-69
2021/06/21 04:52:57;;;;;;;38.42;33.10;;;19.00;99.90;;;;;;5095508;28;20107;-69
2021/06/21 04:55:23;;;;;;;41.50;34.58;;;19.00;99.90;;;;;;5077905;28;20024;-69
2021/06/21 04:57:49;;;;;;;38.53;32.65;;;19.00;99.90;;;;;;5095439;28;20052;-69
2021/06/21 05:00:18;;;;;;;35.63;31.85;;;19.00;99.90;;;;;;5096553;28;20055;-69
2021/06/21 05:02:44;;;;;;;40.63;34.00;;;19.10;99.90;;;;;;5096205;28;20024;-69
2021/06/21 05:05:10;;;;;;;38.58;34.55;;;19.00;99.90;;;;;;5096412;28;20024;-69
2021/06/21 05:07:37;;;;;;;38.92;34.75;;;19.00;99.90;;;;;;5095259;28;20025;-69
2021/06/21 05:10:05;;;;;;;39.80;33.20;;;19.00;99.90;;;;;;5096017;28;20020;-69
2021/06/21 05:12:31;;;;;;;38.17;32.22;;;19.00;99.90;;;;;;5096053;28;20379;-69
2021/06/21 05:14:56;;;;;;;35.95;32.10;;;19.10;99.90;;;;;;5094517;28;20044;-69
2021/06/21 05:17:22;;;;;;;34.28;30.65;;;19.00;99.90;;;;;;5094446;28;20030;-69
2021/06/21 05:19:47;;;;;;;34.83;30.95;;;19.00;99.90;;;;;;5094719;28;20376;-69
2021/06/21 05:22:13;;;;;;;32.17;28.85;;;19.00;99.90;;;;;;5095581;28;20106;-69
2021/06/21 05:24:39;;;;;;;34.30;30.73;;;19.10;99.90;;;;;;5096113;28;20025;-69
2021/06/21 05:27:04;;;;;;;36.28;32.33;;;19.00;99.90;;;;;;5094619;28;20426;-69
2021/06/21 05:29:30;;;;;;;37.40;33.35;;;19.00;99.90;;;;;;5095429;28;20111;-69
2021/06/21 05:31:56;;;;;;;36.50;32.22;;;18.90;99.90;;;;;;5094742;28;20028;-69
2021/06/21 05:34:21;;;;;;;38.83;33.95;;;18.80;99.90;;;;;;5095863;28;20028;-69
2021/06/21 05:36:47;;;;;;;37.45;31.15;;;18.80;99.90;;;;;;5095455;28;20398;-69
2021/06/21 05:39:12;;;;;;;35.28;31.65;;;18.90;99.90;;;;;;5095783;28;20024;-69
2021/06/21 05:41:38;;;;;;;35.03;31.33;;;18.90;99.90;;;;;;5093865;28;20020;-69
2021/06/21 05:44:04;;;;;;;38.40;32.67;;;18.90;99.90;;;;;;5095647;28;20437;-69
2021/06/21 05:46:30;;;;;;;33.08;29.58;;;19.00;99.90;;;;;;5095595;28;20058;-69
2021/06/21 05:48:55;;;;;;;38.95;30.17;;;19.00;99.90;;;;;;5095588;28;20032;-69
2021/06/21 05:51:21;;;;;;;34.97;30.83;;;19.00;99.90;;;;;;5077647;28;20052;-69
2021/06/21 05:53:46;;;;;;;33.65;29.45;;;19.00;99.90;;;;;;5095439;28;20417;-70
2021/06/21 05:56:14;;;;;;;32.80;29.35;;;19.00;99.90;;;;;;5095028;28;20032;-70
2021/06/21 05:58:40;;;;;;;34.75;29.27;;;18.90;99.90;;;;;;5093849;28;20069;-69
2021/06/21 06:01:05;;;;;;;30.35;26.70;;;18.90;99.90;;;;;;5093467;28;20024;-70
2021/06/21 06:03:31;;;;;;;31.33;27.50;;;19.00;99.90;;;;;;5094902;28;20066;-70
2021/06/21 06:05:56;;;;;;;28.15;25.33;;;19.10;99.90;;;;;;5093505;28;20622;-70
2021/06/21 06:08:22;;;;;;;28.77;25.85;;;19.20;99.90;;;;;;5094068;28;20103;-70
2021/06/21 06:10:49;;;;;;;30.90;24.75;;;19.20;99.90;;;;;;5093307;28;20032;-67
2021/06/21 06:13:15;;;;;;;27.08;23.80;;;19.20;99.90;;;;;;5076846;28;20024;-67
2021/06/21 06:15:40;;;;;;;27.38;24.48;;;19.40;99.90;;;;;;5093859;28;20505;-67
2021/06/21 06:18:06;;;;;;;26.05;23.25;;;19.40;99.90;;;;;;5092599;28;20024;-67
2021/06/21 06:20:31;;;;;;;26.75;23.30;;;19.50;99.90;;;;;;5092114;28;20113;-67
2021/06/21 06:22:58;;;;;;;25.17;22.48;;;19.60;99.90;;;;;;5091956;28;20020;-67
2021/06/21 06:25:25;;;;;;;23.52;21.08;;;19.60;99.90;;;;;;5093524;28;20043;-67
2021/06/21 06:27:51;;;;;;;23.00;20.38;;;19.80;99.90;;;;;;5092219;28;20036;-67
2021/06/21 06:30:18;;;;;;;24.77;20.20;;;19.80;99.90;;;;;;5089676;28;20038;-67
2021/06/21 06:32:44;;;;;;;23.17;20.67;;;19.90;99.90;;;;;;5090789;28;20034;-67
2021/06/21 06:35:10;;;;;;;22.67;19.70;;;20.00;99.90;;;;;;5093543;28;20386;-67
2021/06/21 06:37:36;;;;;;;21.50;19.15;;;19.90;99.90;;;;;;5091937;28;20028;-67
2021/06/21 06:40:02;;;;;;;23.58;20.27;;;20.00;99.90;;;;;;5084612;28;20027;-67
2021/06/21 06:42:29;;;;;;;23.50;18.25;;;20.10;99.90;;;;;;5078220;28;20036;-67
2021/06/21 06:44:54;;;;;;;24.17;19.55;;;20.10;99.90;;;;;;5089344;28;20032;-69
2021/06/21 06:47:20;;;;;;;20.58;18.63;;;20.10;99.90;;;;;;5092185;28;20073;-69
2021/06/21 06:49:45;;;;;;;27.50;20.00;;;20.20;99.90;;;;;;5092492;28;20392;-69
2021/06/21 06:52:13;;;;;;;22.58;18.40;;;20.50;99.90;;;;;;5088546;28;20020;-70
2021/06/21 06:56:57;;;;;;;24.98;20.67;;;20.70;99.90;;;;;;5089908;28;20020;-69
2021/06/21 06:57:24;;;;;;;19.35;15.65;;;20.50;99.90;;;;;;5091165;28;20043;-70
2021/06/21 06:59:49;;;;;;;17.42;15.57;;;20.80;99.90;;;;;;5090135;28;20024;-70
2021/06/21 07:02:22;;;;;;;17.10;14.63;;;21.30;99.90;;;;;;5105983;28;20366;-70
2021/06/21 07:04:48;;;;;;;18.23;13.98;;;22.10;99.90;;;;;;5073869;28;20023;-67
2021/06/21 07:07:13;;;;;;;17.05;13.07;;;22.90;99.90;;;;;;5091735;28;20097;-70
2021/06/21 07:09:40;;;;;;;17.40;11.23;;;23.60;99.90;;;;;;5092339;28;20066;-70
2021/06/21 07:12:06;;;;;;;11.65;10.38;;;24.60;99.90;;;;;;5080882;28;20484;-69
2021/06/21 07:14:32;;;;;;;12.82;10.00;;;25.30;99.90;;;;;;5091415;28;20411;-70
2021/06/21 07:16:58;;;;;;;13.25;10.07;;;25.60;99.90;;;;;;5091480;28;20484;-70
2021/06/21 07:19:24;;;;;;;14.95;10.02;;;24.80;99.90;;;;;;5093639;28;20035;-70
2021/06/21 07:21:51;;;;;;;12.30;10.70;;;24.40;99.90;;;;;;5091857;28;20020;-70
2021/06/21 07:24:18;;;;;;;15.57;11.15;;;23.70;99.90;;;;;;5079006;28;20434;-69
2021/06/21 07:26:45;;;;;;;16.17;9.73;;;23.70;99.90;;;;;;5071344;28;20550;-70
2021/06/21 07:29:11;;;;;;;11.48;10.13;;;23.60;99.90;;;;;;5074481;28;20098;-70
2021/06/21 07:31:37;;;;;;;13.88;10.63;;;23.20;99.90;;;;;;5082059;28;20473;-69
2021/06/21 07:34:04;;;;;;;11.90;9.48;;;22.90;99.90;;;;;;5074789;28;20033;-69
2021/06/21 07:36:30;;;;;;;12.25;8.27;;;23.30;99.90;;;;;;5081373;28;20033;-69
2021/06/21 07:39:02;;;;;;;8.85;7.70;;;23.40;99.90;;;;;;5079226;28;20031;-69
2021/06/21 07:41:28;;;;;;;15.32;8.52;;;23.40;99.90;;;;;;5096201;28;20072;-70
2021/06/21 07:43:53;;;;;;;11.32;8.77;;;23.40;99.90;;;;;;5095994;28;20111;-70
2021/06/21 07:46:19;;;;;;;13.43;9.13;;;23.10;99.90;;;;;;5095167;28;20032;-69
2021/06/21 07:48:45;;;;;;;16.25;8.48;;;23.30;99.90;;;;;;5097477;28;20143;-69
2021/06/21 07:51:14;;;;;;;12.98;7.28;;;23.00;99.90;;;;;;5096265;28;20028;-69
2021/06/21 07:53:41;;;;;;;10.38;7.97;;;23.30;99.90;;;;;;5096894;28;20487;-69
2021/06/21 07:56:08;;;;;;;8.55;7.45;;;23.00;99.90;;;;;;5094549;28;20032;-69
2021/06/21 07:58:37;;;;;;;13.00;7.78;;;22.90;99.90;;;;;;5085787;28;20021;-69
2021/06/21 08:01:04;;;;;;;13.18;6.93;;;23.00;99.90;;;;;;5080989;28;20016;-69
2021/06/21 08:03:30;;;;;;;13.50;6.70;;;23.30;99.90;;;;;;5094514;28;20503;-70
2021/06/21 08:06:00;;;;;;;10.50;7.28;;;23.10;99.90;;;;;;5094908;28;20027;-69
2021/06/21 08:08:26;;;;;;;8.50;6.57;;;23.20;99.90;;;;;;5076478;28;20056;-70
2021/06/21 08:10:52;;;;;;;13.35;6.90;;;23.00;99.90;;;;;;5071017;28;20055;-70
2021/06/21 08:13:17;;;;;;;17.98;6.43;;;22.80;99.90;;;;;;5078164;28;20035;-69
2021/06/21 08:15:43;;;;;;;10.23;5.95;;;22.40;99.90;;;;;;5083423;28;20408;-70
2021/06/21 08:18:10;;;;;;;11.38;7.25;;;22.30;99.90;;;;;;5089626;28;20025;-69
2021/06/21 08:20:36;;;;;;;10.88;7.65;;;22.00;99.90;;;;;;5075648;28;20233;-69
2021/06/21 08:23:01;;;;;;;11.63;7.70;;;21.70;99.90;;;;;;5093755;28;20047;-69
2021/06/21 08:25:27;;;;;;;9.65;7.93;;;21.90;99.90;;;;;;5093634;28;20507;-69
2021/06/21 08:27:53;;;;;;;10.10;6.80;;;22.10;99.90;;;;;;5095046;28;20343;-70
2021/06/21 08:30:19;;;;;;;7.15;6.50;;;22.60;99.90;;;;;;5075729;28;20036;-70
2021/06/21 08:32:44;;;;;;;9.00;6.32;;;22.50;99.90;;;;;;5074896;28;20052;-70
2021/06/21 08:35:11;;;;;;;13.98;6.70;;;22.60;99.90;;;;;;5087045;28;20056;-70
2021/06/21 08:37:37;;;;;;;8.80;6.60;;;22.10;99.90;;;;;;5092547;28;20025;-70
2021/06/21 08:40:05;;;;;;;10.70;7.57;;;21.70;99.90;;;;;;5106484;28;20140;-70
2021/06/21 08:42:31;;;;;;;12.98;7.15;;;21.50;99.90;;;;;;5095134;28;20457;-69
2021/06/21 08:44:57;;;;;;;13.57;7.72;;;21.40;99.90;;;;;;5092505;28;20028;-69
2021/06/21 08:47:25;;;;;;;13.77;7.93;;;21.10;99.90;;;;;;5094926;28;20016;-69
2021/06/21 08:49:51;;;;;;;12.32;8.63;;;20.80;99.90;;;;;;5074499;28;20028;-69
2021/06/21 08:52:18;;;;;;;12.10;9.48;;;20.50;99.90;;;;;;5090450;28;20507;-69
2021/06/21 08:54:44;;;;;;;11.88;9.55;;;20.50;99.90;;;;;;5093618;28;20027;-69
2021/06/21 08:57:10;;;;;;;13.18;9.55;;;20.60;99.90;;;;;;5095096;28;20034;-69
2021/06/21 08:59:40;;;;;;;11.73;9.18;;;21.00;99.90;;;;;;5094192;28;20451;-69
2021/06/21 09:02:06;;;;;;;15.05;8.23;;;21.60;99.90;;;;;;5091353;28;20074;-69
2021/06/21 09:04:37;;;;;;;10.10;7.60;;;22.20;99.90;;;;;;5094261;28;20056;-69
2021/06/21 09:07:25;;;;;;;10.65;7.45;;;22.20;99.90;;;;;;5095103;28;20024;-69
2021/06/21 09:09:53;;;;;;;10.75;7.13;;;22.20;99.90;;;;;;5083408;28;20152;-70
2021/06/21 09:12:23;;;;;;;12.18;7.10;;;21.80;99.90;;;;;;5091600;28;20032;-70
2021/06/21 09:14:49;;;;;;;12.27;7.07;;;21.90;99.90;;;;;;5095163;28;20040;-70
2021/06/21 09:17:19;;;;;;;9.80;6.38;;;21.90;99.90;;;;;;5093370;28;20481;-70
2021/06/21 09:20:01;;;;;;;11.30;6.60;;;22.40;99.90;;;;;;5095803;28;20069;-70
2021/06/21 09:22:37;;;;;;;10.10;5.80;;;22.60;99.90;;;;;;5089523;28;20065;-70
2021/06/21 09:25:22;;;;;;;2.92;1.60;;;23.30;99.90;;;;;;5090220;28;20400;-70
2021/06/21 09:28:04;;;;;;;1.27;1.10;;;24.30;99.90;;;;;;5089166;28;20031;-70
2021/06/21 09:30:47;;;;;;;3.85;1.27;;;24.60;99.90;;;;;;5094187;28;20415;-70
2021/06/21 09:33:29;;;;;;;3.05;1.35;;;24.80;99.90;;;;;;5092499;28;20035;-70
2021/06/21 09:35:54;;;;;;;3.65;1.70;;;24.30;99.90;;;;;;5092495;28;20044;-71
2021/06/21 09:38:20;;;;;;;4.53;2.05;;;23.90;99.90;;;;;;5094444;28;20510;-69
2021/06/21 09:43:26;;;;;;;4.60;1.50;;;23.90;99.90;;;;;;5124312;27;20782;-70
2021/06/21 09:46:14;;;;;;;3.50;1.45;;;23.50;99.90;;;;;;5081124;28;20028;-68
2021/06/21 09:48:56;;;;;;;3.03;1.30;;;23.80;99.90;;;;;;5077480;28;20474;-68
2021/06/21 09:51:32;;;;;;;3.17;1.70;;;23.90;99.90;;;;;;5095101;28;20425;-68
2021/06/21 09:54:08;;;;;;;3.40;1.80;;;23.90;99.90;;;;;;5082518;28;20024;-69
2021/06/21 09:56:41;;;;;;;2.13;1.60;;;23.90;99.90;;;;;;5089819;28;20381;-69
2021/06/21 09:59:28;;;;;;;2.97;1.77;;;23.70;99.90;;;;;;5088734;28;20078;-69
2021/06/21 10:02:12;;;;;;;5.72;2.00;;;23.80;99.90;;;;;;5081433;28;20047;-69
2021/06/21 10:04:40;;;;;;;6.43;2.10;;;23.90;99.90;;;;;;5076680;28;20025;-69
2021/06/21 10:07:33;;;;;;;5.03;2.20;;;23.80;99.90;;;;;;5082432;28;20028;-69
2021/06/21 10:10:04;;;;;;;4.78;2.20;;;23.90;99.90;;;;;;5076897;28;20044;-68
2021/06/21 10:12:33;;;;;;;4.00;2.42;;;23.90;99.90;;;;;;5101140;28;20020;-68
2021/06/21 10:14:59;;;;;;;3.72;3.08;;;23.70;99.90;;;;;;5076945;28;20027;-69
2021/06/21 10:17:25;;;;;;;7.40;2.97;;;23.90;99.90;;;;;;5085800;28;20021;-69
2021/06/21 10:19:52;;;;;;;8.25;5.47;;;23.60;99.90;;;;;;5074023;28;20021;-69
2021/06/21 10:22:21;;;;;;;8.77;6.20;;;23.20;99.90;;;;;;5089139;28;20032;-69
2021/06/21 10:24:50;;;;;;;15.50;8.35;;;22.60;99.90;;;;;;5091935;28;20020;-69
2021/06/21 10:27:19;;;;;;;12.43;8.68;;;22.30;99.90;;;;;;5089440;28;20043;-69
2021/06/21 10:29:45;;;;;;;11.65;9.02;;;21.80;99.90;;;;;;5088558;28;20017;-68
2021/06/21 10:32:11;;;;;;;9.57;8.57;;;21.70;99.90;;;;;;5087711;28;20032;-68
2021/06/21 10:34:38;;;;;;;12.13;7.97;;;21.80;99.90;;;;;;5096812;28;20381;-68
2021/06/21 10:37:14;;;;;;;10.05;6.57;;;22.00;99.90;;;;;;5070920;28;20551;-69
2021/06/21 10:39:46;;;;;;;8.60;6.35;;;22.20;99.90;;;;;;5079418;28;20032;-69
2021/06/21 10:44:55;;;;;;;5.40;4.03;;;23.40;99.90;;;;;;5105159;27;20141;-69
2021/06/21 10:47:24;;;;;;;15.35;9.80;;;24.70;99.90;;;;;;5087419;28;20153;-68
2021/06/21 10:49:54;;;;;;;9.23;4.85;;;24.10;99.90;;;;;;5087110;28;20583;-69
2021/06/21 10:52:41;;;;;;;7.97;5.32;;;24.00;99.90;;;;;;5087949;28;20058;-69
2021/06/21 10:58:03;;;;;;;10.85;5.28;;;23.60;99.90;;;;;;5111885;27;20191;-69
2021/06/21 11:00:50;;;;;;;12.07;10.25;;;22.60;99.90;;;;;;5109400;28;20028;-69
2021/06/21 11:06:28;;;;;;;15.07;10.43;;;21.90;99.90;;;;;;5160415;27;47784;-71
2021/06/21 11:08:56;;;;;;;12.75;11.45;;;21.60;99.90;;;;;;5151377;27;20023;-71
2021/06/21 11:11:43;;;;;;;14.68;12.43;;;21.20;99.90;;;;;;5151634;27;20468;-71
2021/06/21 11:14:19;;;;;;;17.88;13.02;;;21.10;99.90;;;;;;5149877;27;20114;-71
2021/06/21 11:16:47;;;;;;;16.20;14.02;;;21.00;99.90;;;;;;5149908;27;20030;-71
2021/06/21 11:21:57;;;;;;;19.00;17.00;;;20.90;99.90;;;;;;5109427;27;20138;-71
2021/06/21 11:24:47;;;;;;;19.60;17.55;;;20.90;99.90;;;;;;5058213;28;20025;-69
2021/06/21 11:27:18;;;;;;;20.35;16.88;;;20.80;99.90;;;;;;5095551;28;20039;-69
2021/06/21 11:29:46;;;;;;;21.23;19.13;;;20.80;99.90;;;;;;5082433;28;20055;-69
2021/06/21 11:32:13;;;;;;;24.45;19.33;;;20.90;99.90;;;;;;5098227;28;20046;-71
2021/06/21 11:34:50;;;;;;;23.30;18.80;;;21.10;99.90;;;;;;5087453;28;20467;-69
2021/06/21 11:45:59;;;;;;;35.17;29.75;;;20.80;99.90;;;;;;5125052;27;20182;-71
2021/06/21 11:48:32;;;;;;;37.25;31.85;;;20.90;99.90;;;;;;5122907;28;20020;-72
2021/06/21 11:51:02;;;;;;;33.47;29.77;;;21.00;99.90;;;;;;5087111;28;20070;-72
2021/06/21 11:53:41;;;;;;;36.58;30.33;;;20.90;99.90;;;;;;5100995;28;20111;-71
2021/06/21 11:56:07;;;;;;;38.15;30.58;;;20.80;99.90;;;;;;5091557;28;20028;-72
2021/06/21 11:58:32;;;;;;;35.60;29.25;;;20.60;99.90;;;;;;5109990;28;20020;-72
2021/06/21 12:01:00;;;;;;;33.30;28.17;;;20.60;99.90;;;;;;5090474;28;20543;-71
2021/06/21 12:03:30;;;;;;;26.77;23.33;;;20.60;99.90;;;;;;5108361;28;20465;-71
2021/06/21 12:05:56;;;;;;;26.63;22.90;;;20.50;99.90;;;;;;5108854;28;20043;-71
2021/06/21 12:08:36;;;;;;;31.63;25.15;;;20.20;99.90;;;;;;5109515;28;20054;-71
2021/06/21 12:11:18;;;;;;;31.98;25.98;;;20.10;99.90;;;;;;5098698;28;20492;-71
2021/06/21 12:13:54;;;;;;;30.40;24.63;;;20.10;99.90;;;;;;5096633;28;20040;-72
2021/06/21 12:16:20;;;;;;;39.63;28.70;;;20.20;99.90;;;;;;5090881;28;20458;-71
2021/06/21 12:18:51;;;;;;;47.00;31.50;;;20.20;99.90;;;;;;5089500;28;20032;-71
2021/06/21 12:21:38;;;;;;;52.40;34.63;;;20.20;99.90;;;;;;5088843;28;20020;-71
2021/06/21 12:24:25;;;;;;;57.47;35.00;;;20.10;99.90;;;;;;5072218;28;20385;-71
2021/06/21 12:26:54;;;;;;;56.90;36.42;;;20.10;99.90;;;;;;5092817;28;20382;-71
2021/06/21 12:29:37;;;;;;;57.25;37.78;;;19.90;99.90;;;;;;5089356;28;20377;-71
2021/06/21 12:32:07;;;;;;;61.08;36.72;;;19.70;99.90;;;;;;5089115;28;20016;-71
2021/06/21 12:34:50;;;;;;;44.92;28.65;;;19.40;99.90;;;;;;5090266;28;20025;-71
2021/06/21 12:37:35;;;;;;;36.08;23.35;;;19.10;99.90;;;;;;5086192;28;20074;-71
2021/06/21 12:40:22;;;;;;;38.33;26.20;;;18.80;99.90;;;;;;5087921;28;20036;-70
2021/06/21 12:42:48;;;;;;;48.40;30.77;;;18.60;99.90;;;;;;5088921;28;20035;-71
2021/06/21 12:45:17;;;;;;;42.22;26.58;;;18.40;99.90;;;;;;5088576;28;20081;-71
2021/06/21 12:47:44;;;;;;;33.83;20.90;;;18.30;99.90;;;;;;5096278;28;20362;-71
2021/06/21 12:50:12;;;;;;;21.58;16.38;;;18.20;99.90;;;;;;5092801;28;20028;-71
2021/06/21 12:52:44;;;;;;;23.52;15.65;;;17.90;99.90;;;;;;5086153;28;20020;-71
2021/06/21 12:55:10;;;;;;;20.40;15.55;;;17.80;99.90;;;;;;5065399;28;20500;-70
2021/06/21 12:57:59;;;;;;;17.63;14.65;;;17.80;99.90;;;;;;5073811;28;20040;-71
2021/06/21 13:00:43;;;;;;;16.70;14.05;;;17.70;99.90;;;;;;5075022;28;20508;-70
2021/06/21 13:03:10;;;;;;;15.43;13.32;;;17.60;99.90;;;;;;5055123;28;20108;-70
2021/06/21 13:05:45;;;;;;;12.75;11.10;;;17.50;99.90;;;;;;5070545;28;20029;-70